createdAt,value
2019-02-05T00:00:00.486Z,12.23
2019-02-05T00:05:05.740Z,12.20
2019-02-05T00:10:10.930Z,12.13
2019-02-05T00:15:16.432Z,12.05
2019-02-05T00:20:20.531Z,11.97
2019-02-05T00:25:25.980Z,11.97
2019-02-05T00:30:34.040Z,12.02
2019-02-05T00:35:39.290Z,11.97
2019-02-05T00:40:43.412Z,11.97
2019-02-05T00:45:47.856Z,11.98
2019-02-05T00:50:53.014Z,11.89
2019-02-05T00:55:57.369Z,11.78
2019-02-05T01:01:01.398Z,11.79
2019-02-05T01:06:05.889Z,11.75
2019-02-05T01:11:10.341Z,11.67
2019-02-05T01:16:14.657Z,11.62
2019-02-05T01:21:19.743Z,11.61
2019-02-05T01:26:29.013Z,11.50
2019-02-05T01:31:29.663Z,11.34
2019-02-05T01:36:35.471Z,11.45
2019-02-05T01:41:39.376Z,11.35
2019-02-05T01:46:43.883Z,11.25
2019-02-05T01:51:48.808Z,11.06
2019-02-05T01:56:53.275Z,11.19
2019-02-05T02:01:57.102Z,11.00
2019-02-05T02:07:01.006Z,10.93
2019-02-05T02:12:07.373Z,10.84
2019-02-05T02:17:12.075Z,10.85
2019-02-05T02:22:20.679Z,10.95
2019-02-05T02:27:25.478Z,10.95
2019-02-05T02:32:29.928Z,11.07
2019-02-05T02:37:33.639Z,10.93
2019-02-05T02:42:37.464Z,11.15
2019-02-05T02:47:41.874Z,11.04
2019-02-05T02:52:45.586Z,10.77
2019-02-05T02:57:50.068Z,10.76
2019-02-05T03:02:53.980Z,10.71
2019-02-05T03:07:59.691Z,10.79
2019-02-05T03:13:03.690Z,10.80
2019-02-05T03:18:10.047Z,10.84
2019-02-05T03:23:15.316Z,10.76
2019-02-05T03:28:20.051Z,10.78
2019-02-05T03:33:26.923Z,10.70
2019-02-05T03:38:31.173Z,10.61
2019-02-05T03:43:36.714Z,10.57
2019-02-05T03:48:41.785Z,10.50
2019-02-05T03:53:50.995Z,10.52
2019-02-05T03:59:31.710Z,10.45
2019-02-05T04:05:28.692Z,10.58
2019-02-05T04:11:00.205Z,10.51
2019-02-05T04:16:47.032Z,10.45
2019-02-05T04:22:41.770Z,10.50
2019-02-05T04:28:21.667Z,10.47
2019-02-05T04:34:06.344Z,10.50
2019-02-05T04:39:53.469Z,10.49
2019-02-05T04:45:47.645Z,10.38
2019-02-05T04:51:44.642Z,10.28
2019-02-05T04:57:56.839Z,10.30
2019-02-05T05:03:44.841Z,10.12
2019-02-05T05:09:10.988Z,10.11
2019-02-05T05:14:14.975Z,10.14
2019-02-05T05:19:19.365Z,10.16
2019-02-05T05:24:23.792Z,10.08
2019-02-05T05:29:28.210Z,9.98
2019-02-05T05:34:34.591Z,9.87
2019-02-05T05:39:38.442Z,9.91
2019-02-05T05:44:42.293Z,9.98
2019-02-05T05:49:45.989Z,9.91
2019-02-05T05:54:49.667Z,10.09
2019-02-05T05:59:53.874Z,10.13
2019-02-05T06:04:57.573Z,10.10
2019-02-05T06:10:01.232Z,10.26
2019-02-05T06:15:07.234Z,10.37
2019-02-05T06:20:14.259Z,10.35
2019-02-05T06:25:18.432Z,10.18
2019-02-05T06:30:23.041Z,10.15
2019-02-05T06:35:27.460Z,10.22
2019-02-05T06:40:34.862Z,10.25
2019-02-05T06:45:41.475Z,10.50
2019-02-05T06:50:44.741Z,10.72
2019-02-05T06:55:48.765Z,10.80
2019-02-05T07:00:52.556Z,10.81
2019-02-05T07:05:56.532Z,10.90
2019-02-05T07:11:00.450Z,11.06
2019-02-05T07:16:04.310Z,11.12
2019-02-05T07:21:08.185Z,11.24
2019-02-05T07:26:12.395Z,11.46
2019-02-05T07:31:16.473Z,11.64
2019-02-05T07:36:20.857Z,11.66
2019-02-05T07:41:24.655Z,11.56
2019-02-05T07:46:28.650Z,11.63
2019-02-05T07:51:32.613Z,11.61
2019-02-05T07:56:36.520Z,11.59
2019-02-05T08:01:40.420Z,11.51
2019-02-05T08:06:44.201Z,11.51
2019-02-05T08:11:48.971Z,11.56
2019-02-05T08:16:52.893Z,11.42
2019-02-05T08:21:57.106Z,11.46
2019-02-05T08:27:02.268Z,10.88
2019-02-05T08:32:06.183Z,10.97
2019-02-05T08:37:10.315Z,10.99
2019-02-05T08:42:14.602Z,10.89
2019-02-05T08:47:18.873Z,10.96
2019-02-05T08:52:22.906Z,10.80
2019-02-05T08:57:26.895Z,10.83
2019-02-05T09:02:30.722Z,11.07
2019-02-05T09:07:34.546Z,11.52
2019-02-05T09:12:40.501Z,11.52
2019-02-05T09:17:44.334Z,11.63
2019-02-05T09:22:48.488Z,11.58
2019-02-05T09:27:52.597Z,11.66
2019-02-05T09:32:57.906Z,11.78
2019-02-05T09:38:02.105Z,11.93
2019-02-05T09:43:05.870Z,12.10
2019-02-05T09:48:10.062Z,12.11
2019-02-05T09:53:14.668Z,12.14
2019-02-05T09:58:18.701Z,12.37
2019-02-05T10:03:22.562Z,12.37
2019-02-05T10:08:27.519Z,12.52
2019-02-05T10:13:31.709Z,12.52
2019-02-05T10:18:36.414Z,12.73
2019-02-05T10:23:40.336Z,12.82
2019-02-05T10:28:45.046Z,12.92
2019-02-05T10:33:55.387Z,13.12
2019-02-05T10:38:58.123Z,13.13
2019-02-05T10:44:05.521Z,13.15
2019-02-05T10:49:09.221Z,13.17
2019-02-05T10:54:12.919Z,13.26
2019-02-05T10:59:20.442Z,13.31
2019-02-05T11:04:24.470Z,13.41
2019-02-05T11:09:28.461Z,13.48
2019-02-05T11:14:33.439Z,13.65
2019-02-05T11:19:39.013Z,13.64
2019-02-05T11:24:43.221Z,13.65
2019-02-05T11:29:49.086Z,13.77
2019-02-05T11:34:53.014Z,13.75
2019-02-05T11:39:57.624Z,13.82
2019-02-05T11:45:02.016Z,13.95
2019-02-05T11:50:10.356Z,13.85
2019-02-05T11:55:20.363Z,14.06
2019-02-05T12:00:44.171Z,14.14
2019-02-05T12:05:48.429Z,14.11
2019-02-05T12:10:53.273Z,14.27
2019-02-05T12:15:57.173Z,14.29
2019-02-05T12:21:01.263Z,14.41
2019-02-05T12:26:05.760Z,14.50
2019-02-05T12:31:09.635Z,14.38
2019-02-05T12:36:13.581Z,14.41
2019-02-05T12:41:18.449Z,14.49
2019-02-05T12:46:23.509Z,14.65
2019-02-05T12:51:27.481Z,14.68
2019-02-05T12:56:34.782Z,14.68
2019-02-05T13:01:38.805Z,14.81
2019-02-05T13:06:42.585Z,14.96
2019-02-05T13:11:50.269Z,15.04
2019-02-05T13:16:54.980Z,14.86
2019-02-05T13:22:00.623Z,14.76
2019-02-05T13:27:04.661Z,14.69
2019-02-05T13:32:08.445Z,14.73
2019-02-05T13:37:12.152Z,14.75
2019-02-05T13:42:16.755Z,14.45
2019-02-05T13:47:21.157Z,14.34
2019-02-05T13:52:24.889Z,14.32
2019-02-05T13:57:28.579Z,14.27
2019-02-05T14:02:32.386Z,14.22
2019-02-05T14:07:39.472Z,14.09
2019-02-05T14:12:45.251Z,14.04
2019-02-05T14:17:49.295Z,13.96
2019-02-05T14:22:54.177Z,13.86
2019-02-05T14:27:57.968Z,13.70
2019-02-05T14:33:01.910Z,13.68
2019-02-05T14:38:07.420Z,13.48
2019-02-05T14:43:12.282Z,13.35
2019-02-05T14:48:16.779Z,13.24
2019-02-05T14:53:20.484Z,13.17
2019-02-05T14:58:24.287Z,12.84
2019-02-05T15:03:28.253Z,12.45
2019-02-05T15:08:31.958Z,12.45
2019-02-05T15:13:35.997Z,12.20
2019-02-05T15:18:39.824Z,11.90
2019-02-05T15:23:43.712Z,11.75
2019-02-05T15:28:48.356Z,11.39
2019-02-05T15:33:58.004Z,11.02
2019-02-05T15:39:01.953Z,10.64
2019-02-05T15:44:08.552Z,10.35
2019-02-05T15:49:12.246Z,10.26
2019-02-05T15:54:16.189Z,9.82
2019-02-05T15:59:20.214Z,9.50
2019-02-05T16:04:24.110Z,9.39
2019-02-05T16:09:29.072Z,9.22
2019-02-05T16:14:32.871Z,9.12
2019-02-05T16:19:36.767Z,9.00
2019-02-05T16:24:41.507Z,8.97
2019-02-05T16:29:45.280Z,8.93
2019-02-05T16:34:49.254Z,8.85
2019-02-05T16:39:53.149Z,8.89
2019-02-05T16:44:57.190Z,8.69
2019-02-05T16:50:02.750Z,8.71
2019-02-05T16:55:07.188Z,8.78
2019-02-05T17:00:25.590Z,8.72
2019-02-05T17:05:32.880Z,8.60
2019-02-05T17:10:36.961Z,8.46
2019-02-05T17:15:41.087Z,8.40
2019-02-05T17:20:44.921Z,8.27
2019-02-05T17:25:48.783Z,8.22
2019-02-05T17:30:53.958Z,8.15
2019-02-05T17:35:58.326Z,8.22
2019-02-05T17:41:04.395Z,8.17
2019-02-05T17:46:08.775Z,8.15
2019-02-05T17:51:12.573Z,8.19
2019-02-05T17:56:16.438Z,7.94
2019-02-05T18:01:20.666Z,7.95
2019-02-05T18:06:25.199Z,8.00
2019-02-05T18:11:29.133Z,8.14
2019-02-05T18:16:32.951Z,8.37
2019-02-05T18:21:37.602Z,8.48
2019-02-05T18:26:41.461Z,8.50
2019-02-05T18:31:45.527Z,8.50
2019-02-05T18:36:49.976Z,8.48
2019-02-05T18:41:53.875Z,8.47
2019-02-05T18:46:58.468Z,8.50
2019-02-05T18:52:03.622Z,8.60
2019-02-05T18:57:07.815Z,8.40
2019-02-05T19:02:12.959Z,8.51
2019-02-05T19:07:17.685Z,8.54
2019-02-05T19:12:21.611Z,8.52
2019-02-05T19:17:25.506Z,8.60
2019-02-05T19:22:29.310Z,8.49
2019-02-05T19:27:33.687Z,8.52
2019-02-05T19:32:39.612Z,8.56
2019-02-05T19:37:43.940Z,8.76
2019-02-05T19:42:47.846Z,8.61
2019-02-05T19:47:52.026Z,8.61
2019-02-05T19:52:55.906Z,8.54
2019-02-05T19:58:00.207Z,8.47
2019-02-05T20:03:04.107Z,8.31
2019-02-05T20:08:09.052Z,8.44
2019-02-05T20:13:12.764Z,8.41
2019-02-05T20:18:16.643Z,8.24
2019-02-05T20:23:20.401Z,8.17
2019-02-05T20:28:24.448Z,8.22
2019-02-05T20:33:28.679Z,8.06
2019-02-05T20:38:32.870Z,7.95
2019-02-05T20:43:36.883Z,7.91
2019-02-05T20:48:41.162Z,8.08
2019-02-05T20:53:45.126Z,8.07
2019-02-05T20:58:52.513Z,7.86
2019-02-05T21:04:01.317Z,7.90
2019-02-05T21:09:26.179Z,7.79
2019-02-05T21:14:29.909Z,7.71
2019-02-05T21:19:37.093Z,7.67
2019-02-05T21:24:43.662Z,7.68
2019-02-05T21:29:49.217Z,7.76
2019-02-05T21:34:57.683Z,7.66
2019-02-05T21:40:02.865Z,7.58
2019-02-05T21:45:09.294Z,7.62
2019-02-05T21:50:16.550Z,7.72
2019-02-05T21:55:21.650Z,7.93
2019-02-05T22:00:29.213Z,8.09
2019-02-05T22:05:36.902Z,7.95
2019-02-05T22:10:41.486Z,7.75
2019-02-05T22:15:45.637Z,7.58
2019-02-05T22:20:49.830Z,7.50
2019-02-05T22:25:54.424Z,7.68
2019-02-05T22:30:58.445Z,7.94
2019-02-05T22:36:02.956Z,7.89
2019-02-05T22:41:06.926Z,7.91
2019-02-05T22:46:10.764Z,7.86
2019-02-05T22:51:15.274Z,7.66
2019-02-05T22:56:19.066Z,7.75
2019-02-05T23:01:46.605Z,7.85
2019-02-05T23:07:20.342Z,7.86
2019-02-05T23:12:28.286Z,7.89
2019-02-05T23:17:32.011Z,7.70
2019-02-05T23:22:36.432Z,7.64
2019-02-05T23:27:40.860Z,7.68
2019-02-05T23:32:44.887Z,7.59
2019-02-05T23:37:48.712Z,7.37
2019-02-05T23:42:52.993Z,7.47
2019-02-05T23:47:57.173Z,7.42
2019-02-05T23:53:01.869Z,7.20
2019-02-05T23:58:05.696Z,7.32
